Somerdale, New Jersey
Current Conditions -  °F | °C
As of 7:54 AM on Friday 31 Oct 2014 (Local Time) from KVAY Reporting Station
Clear Clear  
Wind Chill: 33°   Ceiling: Unl
Heat Index: 33°   Visibility: 8mi
Dew Point: 31°   Wind: 0mph
Humidity: 92%   Direction: NA
Pressure: 30.02"   Gusts: NA
Location:  39.85°N, 75.01°W
Report Text: KVAY 311154Z AUTO 00000KT 8SM CLR 01/M01 A3002 RMK AO2 SLP164 I1000 I6002 T00061006 10017 20000 51001
Loading
Personal Weather Stations






























Interactive Weather Map
Tropical Storm Tracking
New forecast layout! Learn more

10-Day Weather Forecast

Advertisements
Track Severe Weather on mobile